KEAU

Chippewa Valley Regional Airport

Eau Claire, Wisconsin, USA
KEAU 251121Z 2512/2612 33007KT P6SM BKN015 OVC035 FM251700 32009KT P6SM VCSH OVC015 FM251900 31009KT 6SM -RA BR OVC015 FM252200 31011KT P6SM VCSH OVC025 FM260000 29007KT P6SM BKN035
Issued Valid From Valid To
Sep-25 @ 11:21 UTC
(4 hours ago)
Sep-25 @ 12:00 UTC
(3 hours ago)
Sep-26 @ 12:00 UTC
(in 21 hours)
Sep-25 @ 12:00 to Sep-25 @ 17:00
KEAU 251121Z 2512/2612 33007KT P6SM BKN015 OVC035
Wind Visibility Clouds
330° at 7 knots Greater than 6 miles
  • Broken at 1,500' AGL
  • Overcast at 3,500' AGL
From Sep-25 @ 17:00 to Sep-25 @ 19:00
FM251700 32009KT P6SM VCSH OVC015
Wind Visibility Clouds
320° at 9 knots Greater than 6 miles
  • Overcast at 1,500' AGL
From Sep-25 @ 19:00 to Sep-25 @ 22:00
FM251900 31009KT 6SM -RA BR OVC015
Wind Visibility Clouds Conditions
310° at 9 knots 6 miles
  • Overcast at 1,500' AGL
  • Light Rain
  • Mist
From Sep-25 @ 22:00 to Sep-26 @ 00:00
FM252200 31011KT P6SM VCSH OVC025
Wind Visibility Clouds
310° at 11 knots Greater than 6 miles
  • Overcast at 2,500' AGL
From Sep-26 @ 00:00 to Sep-26 @ 12:00
FM260000 29007KT P6SM BKN035
Wind Visibility Clouds
290° at 7 knots Greater than 6 miles
  • Broken at 3,500' AGL
KEAU 251121Z 2512/2612 33007KT P6SM BKN015 OVC035 FM251700 32009KT P6SM VCSH OVC015 FM251900 31009KT 6SM -RA BR OVC015 FM252200 31011KT P6SM VCSH OVC025 FM260000 29007KT P6SM BKN035
Issued Sep-25 @ 11:21 UTC
(4 hours ago)
Valid From Sep-25 @ 12:00 UTC
(3 hours ago)
Valid To Sep-26 @ 12:00 UTC
(in 21 hours)
Sep-25 @ 12:00 - Sep-25 @ 17:00
Wind Visibility
330° at 7 knots Greater than 6 miles
Clouds
  • Broken at 1,500' AGL
  • Overcast at 3,500' AGL
From Sep-25 @ 17:00 - Sep-25 @ 19:00
Wind Visibility
320° at 9 knots Greater than 6 miles
Clouds
  • Overcast at 1,500' AGL
From Sep-25 @ 19:00 - Sep-25 @ 22:00
Wind Visibility
310° at 9 knots 6 miles
Clouds
  • Overcast at 1,500' AGL
Conditions
  • Light Rain
  • Mist
From Sep-25 @ 22:00 - Sep-26 @ 00:00
Wind Visibility
310° at 11 knots Greater than 6 miles
Clouds
  • Overcast at 2,500' AGL
From Sep-26 @ 00:00 - Sep-26 @ 12:00
Wind Visibility
290° at 7 knots Greater than 6 miles
Clouds
  • Broken at 3,500' AGL